VOE6R LIRF-LFBT
Flight info
| Callsign | VOE6R |
|---|---|
| Flight time | N/A |
| Altitude | 38000 |
| Route | NEMBO DCT BEGUD DCT MIRSA DCT OMARD DCT STP/N0441F370 DCT PADKO/N0441F380 DCT FJR DCT GAI/N0437F370 DCT AGN |
| Aircraft | A319/M-SDE3FGHIRWY/LB1 |
Departure
| Time | N/A |
|---|---|
| Airport | Rome–Fiumicino Leonardo da Vinci International Airport (LIRF) |
Arrival
| Time | 2026-05-07 14:00 |
|---|---|
| Airport | Tarbes-Lourdes-Pyrénées Airport (LFBT) |
| Time | Latitude | Longitude | Altitude | Speed | Heading |
|---|---|---|---|---|---|
| 2026-05-07 13:36 | 43.90932 | 2.09468 | 34780 ft | 389 kts | 279° |
| 2026-05-07 13:36 | 43.91543 | 2.05795 | 34313 ft | 387 kts | 279° |
| 2026-05-07 13:36 | 43.92141 | 2.02199 | 33822 ft | 385 kts | 279° |
| 2026-05-07 13:37 | 43.92744 | 1.98581 | 33343 ft | 382 kts | 279° |
| 2026-05-07 13:37 | 43.93333 | 1.95045 | 32896 ft | 378 kts | 279° |
| 2026-05-07 13:37 | 43.93918 | 1.91502 | 32449 ft | 374 kts | 278° |
| 2026-05-07 13:37 | 43.94499 | 1.87984 | 32004 ft | 372 kts | 279° |
| 2026-05-07 13:38 | 43.95044 | 1.84535 | 31554 ft | 368 kts | 275° |
| 2026-05-07 13:38 | 43.95259 | 1.81014 | 31110 ft | 362 kts | 266° |
| 2026-05-07 13:38 | 43.95086 | 1.77552 | 30677 ft | 358 kts | 261° |
| 2026-05-07 13:38 | 43.94853 | 1.74155 | 30258 ft | 356 kts | 261° |
| 2026-05-07 13:39 | 43.94623 | 1.70717 | 29799 ft | 355 kts | 261° |
| 2026-05-07 13:39 | 43.94403 | 1.67352 | 29395 ft | 351 kts | 262° |
| 2026-05-07 13:39 | 43.94183 | 1.63980 | 28989 ft | 348 kts | 262° |
| 2026-05-07 13:39 | 43.93963 | 1.60641 | 28603 ft | 344 kts | 262° |
| 2026-05-07 13:40 | 43.93744 | 1.57382 | 28225 ft | 340 kts | 262° |
| 2026-05-07 13:40 | 43.93523 | 1.54127 | 27845 ft | 336 kts | 262° |
| 2026-05-07 13:40 | 43.93309 | 1.50952 | 27466 ft | 332 kts | 262° |
| 2026-05-07 13:40 | 43.93093 | 1.47761 | 27080 ft | 328 kts | 262° |
| 2026-05-07 13:41 | 43.92882 | 1.44654 | 26693 ft | 325 kts | 262° |
| 2026-05-07 13:41 | 43.92667 | 1.41534 | 26302 ft | 323 kts | 262° |
| 2026-05-07 13:41 | 43.92451 | 1.38429 | 25909 ft | 321 kts | 262° |
| 2026-05-07 13:41 | 43.92240 | 1.35381 | 25502 ft | 320 kts | 262° |
| 2026-05-07 13:42 | 43.92028 | 1.32317 | 25098 ft | 318 kts | 262° |
| 2026-05-07 13:42 | 43.91818 | 1.29252 | 24681 ft | 317 kts | 262° |
| 2026-05-07 13:42 | 43.91608 | 1.26232 | 24262 ft | 316 kts | 262° |
| 2026-05-07 13:42 | 43.91396 | 1.23198 | 23844 ft | 315 kts | 262° |
| 2026-05-07 13:43 | 43.91184 | 1.20207 | 23396 ft | 315 kts | 262° |
| 2026-05-07 13:43 | 43.90968 | 1.17175 | 22947 ft | 313 kts | 262° |
| 2026-05-07 13:43 | 43.90754 | 1.14169 | 22551 ft | 310 kts | 262° |
| 2026-05-07 13:43 | 43.90541 | 1.11222 | 22140 ft | 309 kts | 262° |
| 2026-05-07 13:44 | 43.90324 | 1.08250 | 21740 ft | 308 kts | 262° |
| 2026-05-07 13:44 | 43.90110 | 1.05306 | 21346 ft | 309 kts | 262° |
| 2026-05-07 13:44 | 43.89895 | 1.02319 | 20947 ft | 312 kts | 262° |
| 2026-05-07 13:44 | 43.89680 | 0.99333 | 20551 ft | 314 kts | 262° |
| 2026-05-07 13:45 | 43.89463 | 0.96336 | 20151 ft | 315 kts | 262° |
| 2026-05-07 13:45 | 43.89242 | 0.93283 | 19746 ft | 316 kts | 262° |
| 2026-05-07 13:45 | 43.88860 | 0.90329 | 19354 ft | 314 kts | 251° |
| 2026-05-07 13:45 | 43.87969 | 0.87589 | 18959 ft | 310 kts | 237° |
| 2026-05-07 13:46 | 43.86618 | 0.85248 | 18544 ft | 311 kts | 223° |
| 2026-05-07 13:46 | 43.84927 | 0.83404 | 18105 ft | 311 kts | 215° |
| 2026-05-07 13:46 | 43.83163 | 0.81652 | 17668 ft | 310 kts | 215° |
| 2026-05-07 13:46 | 43.81435 | 0.79928 | 17262 ft | 308 kts | 216° |
| 2026-05-07 13:47 | 43.79689 | 0.78183 | 16855 ft | 307 kts | 216° |
| 2026-05-07 13:47 | 43.77974 | 0.76473 | 16451 ft | 306 kts | 216° |
| 2026-05-07 13:47 | 43.76233 | 0.74743 | 16040 ft | 307 kts | 216° |
| 2026-05-07 13:47 | 43.74521 | 0.73042 | 15632 ft | 306 kts | 216° |
| 2026-05-07 13:48 | 43.72786 | 0.71316 | 15225 ft | 305 kts | 215° |
| 2026-05-07 13:48 | 43.71061 | 0.69602 | 14821 ft | 305 kts | 215° |
| 2026-05-07 13:48 | 43.69353 | 0.67909 | 14427 ft | 305 kts | 215° |
| 2026-05-07 13:48 | 43.67623 | 0.66195 | 14001 ft | 304 kts | 215° |
| 2026-05-07 13:49 | 43.65910 | 0.64499 | 13587 ft | 304 kts | 215° |
| 2026-05-07 13:49 | 43.64182 | 0.62785 | 13164 ft | 303 kts | 215° |
| 2026-05-07 13:49 | 43.62492 | 0.61108 | 12758 ft | 301 kts | 216° |
| 2026-05-07 13:49 | 43.60793 | 0.59428 | 12358 ft | 299 kts | 216° |
| 2026-05-07 13:50 | 43.59119 | 0.57776 | 11972 ft | 297 kts | 216° |
| 2026-05-07 13:50 | 43.57439 | 0.56116 | 11582 ft | 295 kts | 216° |
| 2026-05-07 13:50 | 43.55773 | 0.54470 | 11192 ft | 293 kts | 216° |
| 2026-05-07 13:50 | 43.54126 | 0.52843 | 10805 ft | 291 kts | 216° |
| 2026-05-07 13:51 | 43.52480 | 0.51218 | 10422 ft | 290 kts | 216° |
| 2026-05-07 13:51 | 43.50860 | 0.49625 | 10043 ft | 288 kts | 217° |
| 2026-05-07 13:51 | 43.49231 | 0.48028 | 9724 ft | 283 kts | 217° |
| 2026-05-07 13:51 | 43.47644 | 0.46471 | 9320 ft | 282 kts | 217° |
| 2026-05-07 13:52 | 43.46050 | 0.44904 | 8902 ft | 280 kts | 217° |
| 2026-05-07 13:52 | 43.44470 | 0.43350 | 8517 ft | 277 kts | 217° |
| 2026-05-07 13:52 | 43.42913 | 0.41822 | 8146 ft | 276 kts | 217° |
| 2026-05-07 13:52 | 43.41479 | 0.40100 | 7783 ft | 271 kts | 230° |
| 2026-05-07 13:53 | 43.40457 | 0.37983 | 7435 ft | 267 kts | 245° |
| 2026-05-07 13:53 | 43.39782 | 0.35617 | 7083 ft | 264 kts | 250° |
| 2026-05-07 13:53 | 43.39145 | 0.33264 | 6734 ft | 261 kts | 250° |
| 2026-05-07 13:53 | 43.38514 | 0.30929 | 6392 ft | 258 kts | 250° |
| 2026-05-07 13:54 | 43.37895 | 0.28644 | 6039 ft | 255 kts | 250° |
| 2026-05-07 13:54 | 43.37273 | 0.26360 | 5694 ft | 252 kts | 249° |
| 2026-05-07 13:54 | 43.36666 | 0.24143 | 5366 ft | 249 kts | 249° |
| 2026-05-07 13:54 | 43.36058 | 0.21919 | 5059 ft | 246 kts | 249° |
| 2026-05-07 13:55 | 43.35458 | 0.19711 | 4734 ft | 244 kts | 249° |
| 2026-05-07 13:55 | 43.34873 | 0.17556 | 4410 ft | 243 kts | 249° |
| 2026-05-07 13:55 | 43.34279 | 0.15378 | 4089 ft | 243 kts | 248° |
| 2026-05-07 13:55 | 43.33683 | 0.13197 | 3762 ft | 242 kts | 248° |
| 2026-05-07 13:56 | 43.33095 | 0.11045 | 3443 ft | 241 kts | 248° |
| 2026-05-07 13:56 | 43.32512 | 0.08915 | 3126 ft | 240 kts | 248° |
| 2026-05-07 13:56 | 43.31743 | 0.06946 | 2984 ft | 226 kts | 224° |
| 2026-05-07 13:56 | 43.30519 | 0.05790 | 3001 ft | 204 kts | 198° |
| 2026-05-07 13:57 | 43.29243 | 0.05140 | 3031 ft | 189 kts | 197° |
| 2026-05-07 13:57 | 43.28057 | 0.04536 | 2974 ft | 174 kts | 195° |
| 2026-05-07 13:57 | 43.26965 | 0.03981 | 2814 ft | 164 kts | 195° |
| 2026-05-07 13:57 | 43.25939 | 0.03459 | 2629 ft | 149 kts | 196° |
| 2026-05-07 13:58 | 43.24992 | 0.02979 | 2442 ft | 142 kts | 195° |
| 2026-05-07 13:58 | 43.24087 | 0.02521 | 2268 ft | 139 kts | 195° |
| 2026-05-07 13:58 | 43.23189 | 0.02065 | 2077 ft | 136 kts | 196° |
| 2026-05-07 13:58 | 43.22303 | 0.01621 | 1908 ft | 137 kts | 197° |
| 2026-05-07 13:59 | 43.21406 | 0.01158 | 1737 ft | 137 kts | 199° |
| 2026-05-07 13:59 | 43.20520 | 0.00710 | 1541 ft | 137 kts | 198° |
| 2026-05-07 13:59 | 43.19623 | 0.00255 | 1347 ft | 136 kts | 198° |
| 2026-05-07 13:59 | 43.18751 | -0.00188 | 1194 ft | 124 kts | 199° |
| 2026-05-07 14:00 | 43.18080 | -0.00525 | 1215 ft | 78 kts | 200° |
| 2026-05-07 14:00 | 43.17732 | -0.00701 | 1222 ft | 34 kts | 200° |
| 2026-05-07 14:00 | 43.17519 | -0.00809 | 1228 ft | 31 kts | 200° |
| 2026-05-07 14:00 | 43.17328 | -0.00906 | 1244 ft | 28 kts | 200° |
| 2026-05-07 14:01 | 43.17164 | -0.00989 | 1249 ft | 22 kts | 200° |
| 2026-05-07 14:01 | 43.17096 | -0.00950 | 1247 ft | 11 kts | 111° |
| 2026-05-07 14:01 | 43.17069 | -0.00847 | 1250 ft | 12 kts | 111° |
| 2026-05-07 14:01 | 43.17096 | -0.00757 | 1247 ft | 13 kts | 23° |
| 2026-05-07 14:02 | 43.17193 | -0.00709 | 1248 ft | 17 kts | 20° |
| 2026-05-07 14:02 | 43.17319 | -0.00646 | 1241 ft | 21 kts | 20° |
| 2026-05-07 14:02 | 43.17457 | -0.00575 | 1229 ft | 19 kts | 20° |
| 2026-05-07 14:02 | 43.17589 | -0.00505 | 1225 ft | 22 kts | 24° |
| 2026-05-07 14:03 | 43.17732 | -0.00406 | 1221 ft | 24 kts | 29° |
| 2026-05-07 14:03 | 43.17886 | -0.00289 | 1217 ft | 26 kts | 29° |
| 2026-05-07 14:03 | 43.18053 | -0.00162 | 1212 ft | 28 kts | 29° |
| 2026-05-07 14:03 | 43.18204 | -0.00046 | 1206 ft | 20 kts | 29° |
| 2026-05-07 14:04 | 43.18337 | 0.00055 | 1211 ft | 23 kts | 29° |
| 2026-05-07 14:04 | 43.18426 | 0.00134 | 1216 ft | 9 kts | 59° |
| 2026-05-07 14:04 | 43.18418 | 0.00218 | 1216 ft | 7 kts | 103° |
| 2026-05-07 14:04 | 43.18441 | 0.00274 | 1217 ft | 6 kts | 37° |
| 2026-05-07 14:05 | 43.18475 | 0.00309 | 1217 ft | 5 kts | 37° |
| 2026-05-07 14:05 | 43.18478 | 0.00312 | 1217 ft | 0 kts | 37° |